sensor_id;sensor_type;location;lat;lon;timestamp;temperature;humidity
5459;DHT22;2752;49.992;8.422;2022-11-15T00:00:05;8.60;83.90
5459;DHT22;2752;49.992;8.422;2022-11-15T00:02:32;8.60;85.40
5459;DHT22;2752;49.992;8.422;2022-11-15T00:04:58;8.60;86.00
5459;DHT22;2752;49.992;8.422;2022-11-15T00:07:25;8.50;86.20
5459;DHT22;2752;49.992;8.422;2022-11-15T00:09:52;8.50;87.20
5459;DHT22;2752;49.992;8.422;2022-11-15T00:12:18;8.50;87.50
5459;DHT22;2752;49.992;8.422;2022-11-15T00:14:46;8.50;88.10
5459;DHT22;2752;49.992;8.422;2022-11-15T00:17:13;8.50;88.60
5459;DHT22;2752;49.992;8.422;2022-11-15T00:19:40;8.50;88.90
5459;DHT22;2752;49.992;8.422;2022-11-15T00:22:06;8.50;89.00
5459;DHT22;2752;49.992;8.422;2022-11-15T00:24:33;8.60;89.70
5459;DHT22;2752;49.992;8.422;2022-11-15T00:27:00;8.60;90.10
5459;DHT22;2752;49.992;8.422;2022-11-15T00:29:26;8.60;91.00
5459;DHT22;2752;49.992;8.422;2022-11-15T00:31:54;8.70;91.50
5459;DHT22;2752;49.992;8.422;2022-11-15T00:34:21;8.60;90.80
5459;DHT22;2752;49.992;8.422;2022-11-15T00:36:48;8.70;90.80
5459;DHT22;2752;49.992;8.422;2022-11-15T00:39:14;8.70;91.00
5459;DHT22;2752;49.992;8.422;2022-11-15T00:41:41;8.80;91.70
5459;DHT22;2752;49.992;8.422;2022-11-15T00:44:08;8.90;91.50
5459;DHT22;2752;49.992;8.422;2022-11-15T00:46:34;8.90;90.80
5459;DHT22;2752;49.992;8.422;2022-11-15T00:49:02;8.90;90.90
5459;DHT22;2752;49.992;8.422;2022-11-15T00:51:29;8.90;90.90
5459;DHT22;2752;49.992;8.422;2022-11-15T00:53:56;8.90;91.70
5459;DHT22;2752;49.992;8.422;2022-11-15T00:56:22;8.90;91.80
5459;DHT22;2752;49.992;8.422;2022-11-15T00:58:49;8.90;91.80
5459;DHT22;2752;49.992;8.422;2022-11-15T01:01:16;8.90;91.70
5459;DHT22;2752;49.992;8.422;2022-11-15T01:03:42;8.90;91.70
5459;DHT22;2752;49.992;8.422;2022-11-15T01:06:11;8.90;91.60
5459;DHT22;2752;49.992;8.422;2022-11-15T01:08:38;8.90;91.60
5459;DHT22;2752;49.992;8.422;2022-11-15T01:11:07;8.90;91.80
5459;DHT22;2752;49.992;8.422;2022-11-15T01:13:34;8.90;91.80
5459;DHT22;2752;49.992;8.422;2022-11-15T01:16:07;9.00;91.60
5459;DHT22;2752;49.992;8.422;2022-11-15T01:18:33;8.90;89.40
5459;DHT22;2752;49.992;8.422;2022-11-15T01:21:05;8.90;89.00
5459;DHT22;2752;49.992;8.422;2022-11-15T01:23:33;9.10;88.80
5459;DHT22;2752;49.992;8.422;2022-11-15T01:26:01;8.80;89.00
5459;DHT22;2752;49.992;8.422;2022-11-15T01:28:30;8.80;89.80
5459;DHT22;2752;49.992;8.422;2022-11-15T01:30:58;8.70;89.80
5459;DHT22;2752;49.992;8.422;2022-11-15T01:33:24;8.70;90.50
5459;DHT22;2752;49.992;8.422;2022-11-15T01:35:51;8.70;90.90
5459;DHT22;2752;49.992;8.422;2022-11-15T01:38:18;8.60;91.60
5459;DHT22;2752;49.992;8.422;2022-11-15T01:40:46;8.60;92.50
5459;DHT22;2752;49.992;8.422;2022-11-15T01:43:21;8.90;93.30
5459;DHT22;2752;49.992;8.422;2022-11-15T01:45:51;8.60;93.00
5459;DHT22;2752;49.992;8.422;2022-11-15T01:48:18;8.80;93.90
5459;DHT22;2752;49.992;8.422;2022-11-15T01:50:45;8.70;93.90
5459;DHT22;2752;49.992;8.422;2022-11-15T01:53:12;8.70;93.60
5459;DHT22;2752;49.992;8.422;2022-11-15T01:55:39;8.70;93.20
5459;DHT22;2752;49.992;8.422;2022-11-15T01:58:07;8.70;93.30
5459;DHT22;2752;49.992;8.422;2022-11-15T02:00:34;8.70;93.80
5459;DHT22;2752;49.992;8.422;2022-11-15T02:03:01;8.70;93.30
5459;DHT22;2752;49.992;8.422;2022-11-15T02:05:30;8.70;93.60
5459;DHT22;2752;49.992;8.422;2022-11-15T02:07:57;8.70;93.10
5459;DHT22;2752;49.992;8.422;2022-11-15T02:10:24;8.70;93.10
5459;DHT22;2752;49.992;8.422;2022-11-15T02:12:53;8.70;92.80
5459;DHT22;2752;49.992;8.422;2022-11-15T02:15:24;8.70;93.00
5459;DHT22;2752;49.992;8.422;2022-11-15T02:18:03;8.70;93.00
5459;DHT22;2752;49.992;8.422;2022-11-15T02:26:51;8.70;93.50
5459;DHT22;2752;49.992;8.422;2022-11-15T02:29:32;8.70;93.60
5459;DHT22;2752;49.992;8.422;2022-11-15T02:32:06;8.70;93.10
5459;DHT22;2752;49.992;8.422;2022-11-15T02:34:40;8.90;93.30
5459;DHT22;2752;49.992;8.422;2022-11-15T02:37:14;8.70;93.40
5459;DHT22;2752;49.992;8.422;2022-11-15T02:39:49;8.70;93.10
5459;DHT22;2752;49.992;8.422;2022-11-15T02:42:21;8.60;92.70
5459;DHT22;2752;49.992;8.422;2022-11-15T02:45:08;8.60;92.80
5459;DHT22;2752;49.992;8.422;2022-11-15T02:47:41;8.60;93.80
5459;DHT22;2752;49.992;8.422;2022-11-15T02:50:11;8.60;93.80
5459;DHT22;2752;49.992;8.422;2022-11-15T02:52:38;8.60;94.60
5459;DHT22;2752;49.992;8.422;2022-11-15T02:57:52;8.60;93.80
5459;DHT22;2752;49.992;8.422;2022-11-15T03:00:21;8.60;94.40
5459;DHT22;2752;49.992;8.422;2022-11-15T03:03:13;8.60;94.90
5459;DHT22;2752;49.992;8.422;2022-11-15T03:05:48;8.70;95.80
5459;DHT22;2752;49.992;8.422;2022-11-15T03:08:25;8.70;95.70
5459;DHT22;2752;49.992;8.422;2022-11-15T03:10:59;8.60;94.60
5459;DHT22;2752;49.992;8.422;2022-11-15T03:13:36;8.70;94.70
5459;DHT22;2752;49.992;8.422;2022-11-15T03:16:11;8.70;93.60
5459;DHT22;2752;49.992;8.422;2022-11-15T03:18:45;8.70;93.50
5459;DHT22;2752;49.992;8.422;2022-11-15T03:21:14;8.70;93.00
5459;DHT22;2752;49.992;8.422;2022-11-15T03:23:43;8.70;93.90
5459;DHT22;2752;49.992;8.422;2022-11-15T03:26:13;8.70;93.10
5459;DHT22;2752;49.992;8.422;2022-11-15T03:28:44;8.70;93.40
5459;DHT22;2752;49.992;8.422;2022-11-15T03:31:15;8.80;94.30
5459;DHT22;2752;49.992;8.422;2022-11-15T03:34:25;8.80;94.40
5459;DHT22;2752;49.992;8.422;2022-11-15T03:36:53;8.80;94.30
5459;DHT22;2752;49.992;8.422;2022-11-15T03:39:20;8.80;94.50
5459;DHT22;2752;49.992;8.422;2022-11-15T03:41:52;8.80;94.50
5459;DHT22;2752;49.992;8.422;2022-11-15T03:44:31;8.80;94.90
5459;DHT22;2752;49.992;8.422;2022-11-15T03:47:06;8.80;94.90
5459;DHT22;2752;49.992;8.422;2022-11-15T03:49:36;8.90;95.50
5459;DHT22;2752;49.992;8.422;2022-11-15T03:52:04;8.90;95.90
5459;DHT22;2752;49.992;8.422;2022-11-15T03:54:32;8.90;96.10
5459;DHT22;2752;49.992;8.422;2022-11-15T03:56:58;8.90;95.80
5459;DHT22;2752;49.992;8.422;2022-11-15T03:59:25;8.90;95.70
5459;DHT22;2752;49.992;8.422;2022-11-15T04:01:52;9.00;96.00
5459;DHT22;2752;49.992;8.422;2022-11-15T04:04:19;9.00;96.30
5459;DHT22;2752;49.992;8.422;2022-11-15T04:06:48;9.00;96.50
5459;DHT22;2752;49.992;8.422;2022-11-15T04:09:14;9.10;96.60
5459;DHT22;2752;49.992;8.422;2022-11-15T04:11:41;9.10;96.70
5459;DHT22;2752;49.992;8.422;2022-11-15T04:14:08;9.20;95.60
5459;DHT22;2752;49.992;8.422;2022-11-15T04:16:34;9.20;95.20
5459;DHT22;2752;49.992;8.422;2022-11-15T04:19:01;9.20;95.30
5459;DHT22;2752;49.992;8.422;2022-11-15T04:21:45;9.20;95.00
5459;DHT22;2752;49.992;8.422;2022-11-15T04:24:31;9.30;95.60
5459;DHT22;2752;49.992;8.422;2022-11-15T04:26:57;9.80;96.10
5459;DHT22;2752;49.992;8.422;2022-11-15T04:29:24;9.40;95.20
5459;DHT22;2752;49.992;8.422;2022-11-15T04:32:03;9.40;93.80
5459;DHT22;2752;49.992;8.422;2022-11-15T04:34:30;9.50;93.60
5459;DHT22;2752;49.992;8.422;2022-11-15T04:36:57;9.50;93.10
5459;DHT22;2752;49.992;8.422;2022-11-15T04:39:42;9.40;93.00
5459;DHT22;2752;49.992;8.422;2022-11-15T04:42:10;11.20;94.20
5459;DHT22;2752;49.992;8.422;2022-11-15T04:44:37;9.50;92.00
5459;DHT22;2752;49.992;8.422;2022-11-15T04:47:03;9.50;92.10
5459;DHT22;2752;49.992;8.422;2022-11-15T04:49:30;9.50;92.10
5459;DHT22;2752;49.992;8.422;2022-11-15T04:51:57;9.50;92.10
5459;DHT22;2752;49.992;8.422;2022-11-15T04:54:23;9.60;92.00
5459;DHT22;2752;49.992;8.422;2022-11-15T04:56:51;9.60;91.30
5459;DHT22;2752;49.992;8.422;2022-11-15T04:59:18;9.60;89.80
5459;DHT22;2752;49.992;8.422;2022-11-15T05:01:45;9.50;89.30
5459;DHT22;2752;49.992;8.422;2022-11-15T05:04:11;9.60;89.20
5459;DHT22;2752;49.992;8.422;2022-11-15T05:06:50;9.60;88.90
5459;DHT22;2752;49.992;8.422;2022-11-15T05:09:18;9.60;90.00
5459;DHT22;2752;49.992;8.422;2022-11-15T05:11:45;9.60;89.90
5459;DHT22;2752;49.992;8.422;2022-11-15T05:14:13;9.70;90.20
5459;DHT22;2752;49.992;8.422;2022-11-15T05:16:40;9.70;90.30
5459;DHT22;2752;49.992;8.422;2022-11-15T05:19:07;9.70;90.10
5459;DHT22;2752;49.992;8.422;2022-11-15T05:21:34;9.70;89.80
5459;DHT22;2752;49.992;8.422;2022-11-15T05:24:01;9.70;89.60
5459;DHT22;2752;49.992;8.422;2022-11-15T05:26:28;9.70;89.60
5459;DHT22;2752;49.992;8.422;2022-11-15T05:28:56;9.70;89.40
5459;DHT22;2752;49.992;8.422;2022-11-15T05:31:26;9.70;89.10
5459;DHT22;2752;49.992;8.422;2022-11-15T05:33:54;9.70;88.00
5459;DHT22;2752;49.992;8.422;2022-11-15T05:36:27;9.70;87.90
5459;DHT22;2752;49.992;8.422;2022-11-15T05:38:55;9.80;87.70
5459;DHT22;2752;49.992;8.422;2022-11-15T05:41:26;9.70;87.40
5459;DHT22;2752;49.992;8.422;2022-11-15T05:43:53;9.70;87.40
5459;DHT22;2752;49.992;8.422;2022-11-15T05:46:20;9.90;86.70
5459;DHT22;2752;49.992;8.422;2022-11-15T05:48:49;9.80;86.40
5459;DHT22;2752;49.992;8.422;2022-11-15T05:51:19;9.90;86.10
5459;DHT22;2752;49.992;8.422;2022-11-15T05:53:48;9.90;83.60
5459;DHT22;2752;49.992;8.422;2022-11-15T05:56:15;9.90;84.30
5459;DHT22;2752;49.992;8.422;2022-11-15T05:58:43;9.90;84.30
5459;DHT22;2752;49.992;8.422;2022-11-15T06:01:09;9.90;84.80
5459;DHT22;2752;49.992;8.422;2022-11-15T06:03:36;10.00;83.90
5459;DHT22;2752;49.992;8.422;2022-11-15T06:06:04;10.00;83.60
5459;DHT22;2752;49.992;8.422;2022-11-15T06:08:31;10.00;84.00
5459;DHT22;2752;49.992;8.422;2022-11-15T06:11:03;10.10;83.30
5459;DHT22;2752;49.992;8.422;2022-11-15T06:13:30;10.00;83.20
5459;DHT22;2752;49.992;8.422;2022-11-15T06:15:57;10.10;83.80
5459;DHT22;2752;49.992;8.422;2022-11-15T06:18:24;10.10;83.30
5459;DHT22;2752;49.992;8.422;2022-11-15T06:20:50;10.20;83.20
5459;DHT22;2752;49.992;8.422;2022-11-15T06:23:19;10.20;81.00
5459;DHT22;2752;49.992;8.422;2022-11-15T06:25:45;10.20;80.90
5459;DHT22;2752;49.992;8.422;2022-11-15T06:28:12;10.20;81.10
5459;DHT22;2752;49.992;8.422;2022-11-15T06:30:39;10.20;80.70
5459;DHT22;2752;49.992;8.422;2022-11-15T06:33:05;10.20;80.90
5459;DHT22;2752;49.992;8.422;2022-11-15T06:35:35;10.20;81.20
5459;DHT22;2752;49.992;8.422;2022-11-15T06:38:03;10.30;80.50
5459;DHT22;2752;49.992;8.422;2022-11-15T06:40:33;10.30;81.50
5459;DHT22;2752;49.992;8.422;2022-11-15T06:43:00;10.40;79.50
5459;DHT22;2752;49.992;8.422;2022-11-15T06:45:26;10.30;79.20
5459;DHT22;2752;49.992;8.422;2022-11-15T06:47:53;10.40;80.20
5459;DHT22;2752;49.992;8.422;2022-11-15T06:50:20;10.40;80.20
5459;DHT22;2752;49.992;8.422;2022-11-15T06:52:47;10.40;79.60
5459;DHT22;2752;49.992;8.422;2022-11-15T06:55:14;10.40;79.50
5459;DHT22;2752;49.992;8.422;2022-11-15T06:57:47;10.40;78.70
5459;DHT22;2752;49.992;8.422;2022-11-15T07:00:15;10.40;78.60
5459;DHT22;2752;49.992;8.422;2022-11-15T07:02:42;10.40;78.60
5459;DHT22;2752;49.992;8.422;2022-11-15T07:05:10;10.50;78.00
5459;DHT22;2752;49.992;8.422;2022-11-15T07:07:36;10.50;76.60
5459;DHT22;2752;49.992;8.422;2022-11-15T07:10:04;10.60;76.50
5459;DHT22;2752;49.992;8.422;2022-11-15T07:12:31;10.60;75.90
5459;DHT22;2752;49.992;8.422;2022-11-15T07:14:59;10.60;75.40
5459;DHT22;2752;49.992;8.422;2022-11-15T07:17:26;10.60;76.50
5459;DHT22;2752;49.992;8.422;2022-11-15T07:19:52;10.70;76.70
5459;DHT22;2752;49.992;8.422;2022-11-15T07:22:19;10.70;75.10
5459;DHT22;2752;49.992;8.422;2022-11-15T07:24:46;10.70;76.10
5459;DHT22;2752;49.992;8.422;2022-11-15T07:27:12;10.70;76.70
5459;DHT22;2752;49.992;8.422;2022-11-15T07:29:39;10.70;76.60
5459;DHT22;2752;49.992;8.422;2022-11-15T07:32:07;10.80;76.10
5459;DHT22;2752;49.992;8.422;2022-11-15T07:34:34;10.80;74.80
5459;DHT22;2752;49.992;8.422;2022-11-15T07:37:00;10.80;74.40
5459;DHT22;2752;49.992;8.422;2022-11-15T07:39:27;11.10;74.80
5459;DHT22;2752;49.992;8.422;2022-11-15T07:41:54;10.90;75.80
5459;DHT22;2752;49.992;8.422;2022-11-15T07:44:40;11.00;73.20
5459;DHT22;2752;49.992;8.422;2022-11-15T07:47:08;11.00;73.40
5459;DHT22;2752;49.992;8.422;2022-11-15T07:49:35;11.10;72.70
5459;DHT22;2752;49.992;8.422;2022-11-15T07:52:02;11.10;73.30
5459;DHT22;2752;49.992;8.422;2022-11-15T07:54:29;11.20;69.10
5459;DHT22;2752;49.992;8.422;2022-11-15T07:56:55;11.20;69.00
5459;DHT22;2752;49.992;8.422;2022-11-15T07:59:22;11.30;68.70
5459;DHT22;2752;49.992;8.422;2022-11-15T08:01:49;11.40;63.80
5459;DHT22;2752;49.992;8.422;2022-11-15T08:04:17;11.50;58.10
5459;DHT22;2752;49.992;8.422;2022-11-15T08:06:44;11.50;60.20
5459;DHT22;2752;49.992;8.422;2022-11-15T08:09:11;11.50;60.20
5459;DHT22;2752;49.992;8.422;2022-11-15T08:11:38;11.40;60.10
5459;DHT22;2752;49.992;8.422;2022-11-15T08:14:05;11.50;61.20
5459;DHT22;2752;49.992;8.422;2022-11-15T08:16:31;11.50;60.20
5459;DHT22;2752;49.992;8.422;2022-11-15T08:18:58;11.50;60.20
5459;DHT22;2752;49.992;8.422;2022-11-15T08:21:27;11.50;60.20
5459;DHT22;2752;49.992;8.422;2022-11-15T08:23:53;11.60;58.40
5459;DHT22;2752;49.992;8.422;2022-11-15T08:26:20;11.60;59.00
5459;DHT22;2752;49.992;8.422;2022-11-15T08:28:47;11.50;59.70
5459;DHT22;2752;49.992;8.422;2022-11-15T08:31:14;11.60;56.80
5459;DHT22;2752;49.992;8.422;2022-11-15T08:33:43;11.70;56.30
5459;DHT22;2752;49.992;8.422;2022-11-15T08:36:13;11.70;56.70
5459;DHT22;2752;49.992;8.422;2022-11-15T08:38:42;11.80;55.10
5459;DHT22;2752;49.992;8.422;2022-11-15T08:41:13;11.80;55.10
5459;DHT22;2752;49.992;8.422;2022-11-15T08:43:41;11.80;55.30
5459;DHT22;2752;49.992;8.422;2022-11-15T08:46:09;11.80;54.50
5459;DHT22;2752;49.992;8.422;2022-11-15T08:48:37;11.70;53.90
5459;DHT22;2752;49.992;8.422;2022-11-15T08:51:04;11.60;54.00
5459;DHT22;2752;49.992;8.422;2022-11-15T08:53:31;11.70;56.10
5459;DHT22;2752;49.992;8.422;2022-11-15T08:55:59;11.90;55.80
5459;DHT22;2752;49.992;8.422;2022-11-15T08:58:26;11.90;55.00
5459;DHT22;2752;49.992;8.422;2022-11-15T09:00:53;11.90;54.70
5459;DHT22;2752;49.992;8.422;2022-11-15T09:03:20;11.90;54.20
5459;DHT22;2752;49.992;8.422;2022-11-15T09:05:46;12.00;53.30
5459;DHT22;2752;49.992;8.422;2022-11-15T09:08:13;12.10;52.90
5459;DHT22;2752;49.992;8.422;2022-11-15T09:10:40;12.00;51.90
5459;DHT22;2752;49.992;8.422;2022-11-15T09:13:08;12.20;52.10
5459;DHT22;2752;49.992;8.422;2022-11-15T09:15:34;12.20;52.00
5459;DHT22;2752;49.992;8.422;2022-11-15T09:18:01;12.30;52.80
5459;DHT22;2752;49.992;8.422;2022-11-15T09:20:28;12.40;52.10
5459;DHT22;2752;49.992;8.422;2022-11-15T09:22:54;12.40;51.70
5459;DHT22;2752;49.992;8.422;2022-11-15T09:25:24;12.40;51.70
5459;DHT22;2752;49.992;8.422;2022-11-15T09:27:51;12.60;49.30
5459;DHT22;2752;49.992;8.422;2022-11-15T09:30:19;12.50;48.40
5459;DHT22;2752;49.992;8.422;2022-11-15T09:32:46;12.70;46.00
5459;DHT22;2752;49.992;8.422;2022-11-15T09:35:13;12.70;44.70
5459;DHT22;2752;49.992;8.422;2022-11-15T09:37:40;12.70;44.10
5459;DHT22;2752;49.992;8.422;2022-11-15T09:40:10;12.60;43.80
5459;DHT22;2752;49.992;8.422;2022-11-15T09:42:49;12.60;45.20
5459;DHT22;2752;49.992;8.422;2022-11-15T09:45:23;12.60;45.40
5459;DHT22;2752;49.992;8.422;2022-11-15T09:48:26;13.00;46.50
5459;DHT22;2752;49.992;8.422;2022-11-15T09:50:57;12.60;47.90
5459;DHT22;2752;49.992;8.422;2022-11-15T09:53:30;12.60;49.80
5459;DHT22;2752;49.992;8.422;2022-11-15T09:56:00;12.70;50.10
5459;DHT22;2752;49.992;8.422;2022-11-15T09:58:33;12.70;49.70
5459;DHT22;2752;49.992;8.422;2022-11-15T10:01:07;12.80;50.40
5459;DHT22;2752;49.992;8.422;2022-11-15T10:03:37;12.90;50.40
5459;DHT22;2752;49.992;8.422;2022-11-15T10:06:11;12.90;51.10
5459;DHT22;2752;49.992;8.422;2022-11-15T10:08:49;13.00;48.00
5459;DHT22;2752;49.992;8.422;2022-11-15T10:11:20;13.00;48.60
5459;DHT22;2752;49.992;8.422;2022-11-15T10:13:50;12.90;49.70
5459;DHT22;2752;49.992;8.422;2022-11-15T10:19:24;12.80;49.70
5459;DHT22;2752;49.992;8.422;2022-11-15T10:22:00;12.80;51.40
5459;DHT22;2752;49.992;8.422;2022-11-15T10:24:39;12.70;51.00
5459;DHT22;2752;49.992;8.422;2022-11-15T10:27:10;12.70;52.40
5459;DHT22;2752;49.992;8.422;2022-11-15T10:29:42;12.70;53.40
5459;DHT22;2752;49.992;8.422;2022-11-15T10:32:11;12.80;53.20
5459;DHT22;2752;49.992;8.422;2022-11-15T10:34:39;12.70;50.10
5459;DHT22;2752;49.992;8.422;2022-11-15T10:37:06;12.60;50.80
5459;DHT22;2752;49.992;8.422;2022-11-15T10:39:33;12.70;53.90
5459;DHT22;2752;49.992;8.422;2022-11-15T10:42:15;12.70;54.90
5459;DHT22;2752;49.992;8.422;2022-11-15T10:44:43;12.80;54.60
5459;DHT22;2752;49.992;8.422;2022-11-15T10:47:25;12.80;55.30
5459;DHT22;2752;49.992;8.422;2022-11-15T10:49:56;12.80;55.90
5459;DHT22;2752;49.992;8.422;2022-11-15T10:52:23;12.80;57.20
5459;DHT22;2752;49.992;8.422;2022-11-15T10:54:52;12.80;58.20
5459;DHT22;2752;49.992;8.422;2022-11-15T10:57:22;12.70;57.00
5459;DHT22;2752;49.992;8.422;2022-11-15T10:59:51;12.70;58.20
5459;DHT22;2752;49.992;8.422;2022-11-15T11:02:37;12.80;59.60
5459;DHT22;2752;49.992;8.422;2022-11-15T11:05:27;13.00;61.00
5459;DHT22;2752;49.992;8.422;2022-11-15T11:07:57;13.00;60.90
5459;DHT22;2752;49.992;8.422;2022-11-15T11:10:24;13.20;58.80
5459;DHT22;2752;49.992;8.422;2022-11-15T11:12:50;13.30;54.90
5459;DHT22;2752;49.992;8.422;2022-11-15T11:15:18;13.30;53.40
5459;DHT22;2752;49.992;8.422;2022-11-15T11:17:54;13.30;52.50
5459;DHT22;2752;49.992;8.422;2022-11-15T11:20:29;13.40;53.30
5459;DHT22;2752;49.992;8.422;2022-11-15T11:23:06;13.50;54.40
5459;DHT22;2752;49.992;8.422;2022-11-15T11:25:43;13.60;50.40
5459;DHT22;2752;49.992;8.422;2022-11-15T11:28:26;13.50;45.70
5459;DHT22;2752;49.992;8.422;2022-11-15T11:31:04;13.60;46.00
5459;DHT22;2752;49.992;8.422;2022-11-15T11:33:39;13.70;45.50
5459;DHT22;2752;49.992;8.422;2022-11-15T11:36:20;13.80;45.80
5459;DHT22;2752;49.992;8.422;2022-11-15T11:38:58;13.80;44.60
5459;DHT22;2752;49.992;8.422;2022-11-15T11:41:40;13.80;43.40
5459;DHT22;2752;49.992;8.422;2022-11-15T11:44:18;13.90;40.50
5459;DHT22;2752;49.992;8.422;2022-11-15T11:46:50;13.90;40.90
5459;DHT22;2752;49.992;8.422;2022-11-15T11:49:22;13.90;39.60
5459;DHT22;2752;49.992;8.422;2022-11-15T11:51:54;13.90;38.90
5459;DHT22;2752;49.992;8.422;2022-11-15T11:54:25;13.90;39.40
5459;DHT22;2752;49.992;8.422;2022-11-15T11:56:57;13.90;39.40
5459;DHT22;2752;49.992;8.422;2022-11-15T11:59:39;13.90;38.90
5459;DHT22;2752;49.992;8.422;2022-11-15T12:02:14;14.00;38.30
5459;DHT22;2752;49.992;8.422;2022-11-15T12:04:46;13.90;37.00
5459;DHT22;2752;49.992;8.422;2022-11-15T12:07:18;13.90;40.30
5459;DHT22;2752;49.992;8.422;2022-11-15T12:09:52;13.70;39.40
5459;DHT22;2752;49.992;8.422;2022-11-15T12:12:25;13.90;40.10
5459;DHT22;2752;49.992;8.422;2022-11-15T12:14:55;13.90;41.30
5459;DHT22;2752;49.992;8.422;2022-11-15T12:17:24;14.00;39.00
5459;DHT22;2752;49.992;8.422;2022-11-15T12:19:53;14.00;38.20
5459;DHT22;2752;49.992;8.422;2022-11-15T12:22:28;14.20;35.40
5459;DHT22;2752;49.992;8.422;2022-11-15T12:25:03;14.10;36.70
5459;DHT22;2752;49.992;8.422;2022-11-15T12:27:35;14.10;35.30
5459;DHT22;2752;49.992;8.422;2022-11-15T12:30:08;14.10;35.70
5459;DHT22;2752;49.992;8.422;2022-11-15T12:32:37;14.10;36.70
5459;DHT22;2752;49.992;8.422;2022-11-15T12:35:21;14.00;34.30
5459;DHT22;2752;49.992;8.422;2022-11-15T12:37:51;14.00;35.70
5459;DHT22;2752;49.992;8.422;2022-11-15T12:40:25;13.90;36.30
5459;DHT22;2752;49.992;8.422;2022-11-15T12:46:13;13.90;38.30
5459;DHT22;2752;49.992;8.422;2022-11-15T12:48:49;14.00;40.00
5459;DHT22;2752;49.992;8.422;2022-11-15T12:51:16;14.00;41.00
5459;DHT22;2752;49.992;8.422;2022-11-15T12:53:45;14.00;43.40
5459;DHT22;2752;49.992;8.422;2022-11-15T12:56:22;14.00;43.70
5459;DHT22;2752;49.992;8.422;2022-11-15T12:58:52;14.00;44.50
5459;DHT22;2752;49.992;8.422;2022-11-15T13:01:56;14.20;41.20
5459;DHT22;2752;49.992;8.422;2022-11-15T13:04:26;14.30;42.30
5459;DHT22;2752;49.992;8.422;2022-11-15T13:06:55;14.30;42.00
5459;DHT22;2752;49.992;8.422;2022-11-15T13:09:52;14.10;41.80
5459;DHT22;2752;49.992;8.422;2022-11-15T13:12:48;14.30;42.00
5459;DHT22;2752;49.992;8.422;2022-11-15T13:15:34;14.40;41.30
5459;DHT22;2752;49.992;8.422;2022-11-15T13:18:26;14.30;40.40
5459;DHT22;2752;49.992;8.422;2022-11-15T13:20:53;14.30;42.60
5459;DHT22;2752;49.992;8.422;2022-11-15T13:23:21;14.40;39.00
5459;DHT22;2752;49.992;8.422;2022-11-15T13:26:00;14.30;38.50
5459;DHT22;2752;49.992;8.422;2022-11-15T13:28:31;14.30;40.60
5459;DHT22;2752;49.992;8.422;2022-11-15T13:31:00;16.00;42.70
5459;DHT22;2752;49.992;8.422;2022-11-15T13:33:30;14.40;42.70
5459;DHT22;2752;49.992;8.422;2022-11-15T13:35:59;14.40;41.60
5459;DHT22;2752;49.992;8.422;2022-11-15T13:38:29;14.30;41.00
5459;DHT22;2752;49.992;8.422;2022-11-15T13:40:58;14.30;41.10
5459;DHT22;2752;49.992;8.422;2022-11-15T13:43:32;14.30;42.10
5459;DHT22;2752;49.992;8.422;2022-11-15T13:46:21;14.30;41.40
5459;DHT22;2752;49.992;8.422;2022-11-15T13:48:52;14.30;41.40
5459;DHT22;2752;49.992;8.422;2022-11-15T13:51:24;14.30;41.00
5459;DHT22;2752;49.992;8.422;2022-11-15T13:53:54;14.30;41.30
5459;DHT22;2752;49.992;8.422;2022-11-15T13:56:25;14.30;43.30
5459;DHT22;2752;49.992;8.422;2022-11-15T13:58:53;14.20;44.40
5459;DHT22;2752;49.992;8.422;2022-11-15T14:01:21;14.30;45.30
5459;DHT22;2752;49.992;8.422;2022-11-15T14:03:59;14.30;45.60
5459;DHT22;2752;49.992;8.422;2022-11-15T14:06:29;14.30;45.40
5459;DHT22;2752;49.992;8.422;2022-11-15T14:09:02;14.30;44.30
5459;DHT22;2752;49.992;8.422;2022-11-15T14:11:30;14.20;44.40
5459;DHT22;2752;49.992;8.422;2022-11-15T14:14:22;14.20;44.20
5459;DHT22;2752;49.992;8.422;2022-11-15T14:16:50;14.10;45.30
5459;DHT22;2752;49.992;8.422;2022-11-15T14:19:38;14.10;45.60
5459;DHT22;2752;49.992;8.422;2022-11-15T14:22:10;14.10;46.10
5459;DHT22;2752;49.992;8.422;2022-11-15T14:24:37;14.10;44.90
5459;DHT22;2752;49.992;8.422;2022-11-15T14:27:24;14.20;43.40
5459;DHT22;2752;49.992;8.422;2022-11-15T14:29:51;14.20;42.30
5459;DHT22;2752;49.992;8.422;2022-11-15T14:32:20;14.10;43.50
5459;DHT22;2752;49.992;8.422;2022-11-15T14:34:47;14.10;44.20
5459;DHT22;2752;49.992;8.422;2022-11-15T14:37:20;14.00;46.10
5459;DHT22;2752;49.992;8.422;2022-11-15T14:39:48;14.10;45.10
5459;DHT22;2752;49.992;8.422;2022-11-15T14:42:15;14.10;44.10
5459;DHT22;2752;49.992;8.422;2022-11-15T14:44:44;14.00;44.50
5459;DHT22;2752;49.992;8.422;2022-11-15T14:47:10;13.90;44.90
5459;DHT22;2752;49.992;8.422;2022-11-15T14:49:37;13.90;46.10
5459;DHT22;2752;49.992;8.422;2022-11-15T14:52:11;13.80;46.00
5459;DHT22;2752;49.992;8.422;2022-11-15T14:54:43;13.90;45.90
5459;DHT22;2752;49.992;8.422;2022-11-15T14:57:09;13.90;45.80
5459;DHT22;2752;49.992;8.422;2022-11-15T14:59:36;14.00;46.20
5459;DHT22;2752;49.992;8.422;2022-11-15T15:02:09;14.00;43.80
5459;DHT22;2752;49.992;8.422;2022-11-15T15:04:40;13.90;45.90
5459;DHT22;2752;49.992;8.422;2022-11-15T15:07:06;13.90;46.00
5459;DHT22;2752;49.992;8.422;2022-11-15T15:09:33;13.80;45.80
5459;DHT22;2752;49.992;8.422;2022-11-15T15:12:00;13.50;46.50
5459;DHT22;2752;49.992;8.422;2022-11-15T15:14:26;13.60;47.10
5459;DHT22;2752;49.992;8.422;2022-11-15T15:16:53;13.70;47.50
5459;DHT22;2752;49.992;8.422;2022-11-15T15:19:21;13.60;46.50
5459;DHT22;2752;49.992;8.422;2022-11-15T15:21:48;13.60;45.70
5459;DHT22;2752;49.992;8.422;2022-11-15T15:24:15;13.60;45.80
5459;DHT22;2752;49.992;8.422;2022-11-15T15:26:41;13.60;45.70
5459;DHT22;2752;49.992;8.422;2022-11-15T15:29:09;13.50;45.70
5459;DHT22;2752;49.992;8.422;2022-11-15T15:31:35;13.50;47.00
5459;DHT22;2752;49.992;8.422;2022-11-15T15:34:02;13.40;46.60
5459;DHT22;2752;49.992;8.422;2022-11-15T15:36:30;13.40;47.90
5459;DHT22;2752;49.992;8.422;2022-11-15T15:38:57;13.40;48.30
5459;DHT22;2752;49.992;8.422;2022-11-15T15:41:24;13.40;48.20
5459;DHT22;2752;49.992;8.422;2022-11-15T15:43:50;13.30;49.40
5459;DHT22;2752;49.992;8.422;2022-11-15T15:46:18;13.30;49.20
5459;DHT22;2752;49.992;8.422;2022-11-15T15:48:46;13.30;50.20
5459;DHT22;2752;49.992;8.422;2022-11-15T15:51:13;13.30;48.90
5459;DHT22;2752;49.992;8.422;2022-11-15T15:53:41;13.30;48.90
5459;DHT22;2752;49.992;8.422;2022-11-15T15:56:08;13.20;49.90
5459;DHT22;2752;49.992;8.422;2022-11-15T15:58:35;13.20;50.40
5459;DHT22;2752;49.992;8.422;2022-11-15T16:01:02;13.10;50.10
5459;DHT22;2752;49.992;8.422;2022-11-15T16:03:28;13.10;51.50
5459;DHT22;2752;49.992;8.422;2022-11-15T16:05:55;13.10;52.20
5459;DHT22;2752;49.992;8.422;2022-11-15T16:08:24;13.10;51.60
5459;DHT22;2752;49.992;8.422;2022-11-15T16:10:53;13.10;52.00
5459;DHT22;2752;49.992;8.422;2022-11-15T16:13:20;13.10;48.70
5459;DHT22;2752;49.992;8.422;2022-11-15T16:15:48;13.00;45.80
5459;DHT22;2752;49.992;8.422;2022-11-15T16:18:17;13.00;45.40
5459;DHT22;2752;49.992;8.422;2022-11-15T16:20:45;13.00;45.50
5459;DHT22;2752;49.992;8.422;2022-11-15T16:23:16;13.10;45.50
5459;DHT22;2752;49.992;8.422;2022-11-15T16:25:47;13.00;45.80
5459;DHT22;2752;49.992;8.422;2022-11-15T16:28:20;13.00;47.50
5459;DHT22;2752;49.992;8.422;2022-11-15T16:30:48;12.90;48.80
5459;DHT22;2752;49.992;8.422;2022-11-15T16:33:15;12.90;51.30
5459;DHT22;2752;49.992;8.422;2022-11-15T16:35:45;12.90;52.00
5459;DHT22;2752;49.992;8.422;2022-11-15T16:38:14;12.80;55.40
5459;DHT22;2752;49.992;8.422;2022-11-15T16:40:41;12.80;55.90